sensor_id;sensor_type;location;lat;lon;timestamp;P1;durP1;ratioP1;P2;durP2;ratioP2
44078;SDS011;29744;49.078;12.878;2023-07-31T00:03:54;2.45;;;1.33;;
44078;SDS011;29744;49.078;12.878;2023-07-31T00:08:54;2.50;;;1.30;;
44078;SDS011;29744;49.078;12.878;2023-07-31T00:13:55;2.60;;;1.40;;
44078;SDS011;29744;49.078;12.878;2023-07-31T00:18:55;2.03;;;1.27;;
44078;SDS011;29744;49.078;12.878;2023-07-31T00:23:55;2.33;;;1.20;;
44078;SDS011;29744;49.078;12.878;2023-07-31T00:28:56;2.90;;;1.40;;
44078;SDS011;29744;49.078;12.878;2023-07-31T00:33:56;2.92;;;1.40;;
44078;SDS011;29744;49.078;12.878;2023-07-31T00:38:56;2.30;;;1.20;;
44078;SDS011;29744;49.078;12.878;2023-07-31T00:43:56;1.90;;;1.13;;
44078;SDS011;29744;49.078;12.878;2023-07-31T00:48:57;2.65;;;1.20;;
44078;SDS011;29744;49.078;12.878;2023-07-31T00:53:57;1.83;;;1.20;;
44078;SDS011;29744;49.078;12.878;2023-07-31T00:58:58;2.38;;;1.40;;
44078;SDS011;29744;49.078;12.878;2023-07-31T01:03:58;2.00;;;1.15;;
44078;SDS011;29744;49.078;12.878;2023-07-31T01:14:06;2.10;;;1.15;;
44078;SDS011;29744;49.078;12.878;2023-07-31T01:19:07;2.33;;;1.27;;
44078;SDS011;29744;49.078;12.878;2023-07-31T01:35:16;2.08;;;1.20;;
44078;SDS011;29744;49.078;12.878;2023-07-31T01:40:17;2.45;;;1.40;;
44078;SDS011;29744;49.078;12.878;2023-07-31T01:45:17;2.33;;;1.33;;
44078;SDS011;29744;49.078;12.878;2023-07-31T01:50:18;2.53;;;1.30;;
44078;SDS011;29744;49.078;12.878;2023-07-31T01:55:18;2.22;;;1.17;;
44078;SDS011;29744;49.078;12.878;2023-07-31T02:00:18;1.92;;;1.30;;
44078;SDS011;29744;49.078;12.878;2023-07-31T02:05:19;2.60;;;1.17;;
44078;SDS011;29744;49.078;12.878;2023-07-31T02:10:19;2.35;;;1.25;;
44078;SDS011;29744;49.078;12.878;2023-07-31T02:15:19;1.80;;;1.20;;
44078;SDS011;29744;49.078;12.878;2023-07-31T02:20:21;2.13;;;1.10;;
44078;SDS011;29744;49.078;12.878;2023-07-31T02:25:21;2.13;;;1.13;;
44078;SDS011;29744;49.078;12.878;2023-07-31T02:30:21;1.73;;;1.10;;
44078;SDS011;29744;49.078;12.878;2023-07-31T02:35:22;1.90;;;1.20;;
44078;SDS011;29744;49.078;12.878;2023-07-31T02:40:22;2.38;;;1.00;;
44078;SDS011;29744;49.078;12.878;2023-07-31T02:45:23;2.05;;;1.27;;
44078;SDS011;29744;49.078;12.878;2023-07-31T02:50:23;1.80;;;1.10;;
44078;SDS011;29744;49.078;12.878;2023-07-31T02:55:24;2.22;;;1.00;;
44078;SDS011;29744;49.078;12.878;2023-07-31T03:00:24;1.67;;;1.00;;
44078;SDS011;29744;49.078;12.878;2023-07-31T03:05:24;1.73;;;1.10;;
44078;SDS011;29744;49.078;12.878;2023-07-31T03:10:25;2.15;;;1.20;;
44078;SDS011;29744;49.078;12.878;2023-07-31T03:15:25;1.75;;;1.00;;
44078;SDS011;29744;49.078;12.878;2023-07-31T03:20:25;1.87;;;0.97;;
44078;SDS011;29744;49.078;12.878;2023-07-31T03:25:25;1.90;;;1.00;;
44078;SDS011;29744;49.078;12.878;2023-07-31T03:30:26;1.63;;;0.90;;
44078;SDS011;29744;49.078;12.878;2023-07-31T03:35:26;1.85;;;1.00;;
44078;SDS011;29744;49.078;12.878;2023-07-31T03:40:27;2.25;;;1.15;;
44078;SDS011;29744;49.078;12.878;2023-07-31T03:45:27;1.77;;;1.05;;
44078;SDS011;29744;49.078;12.878;2023-07-31T03:50:27;2.17;;;1.10;;
44078;SDS011;29744;49.078;12.878;2023-07-31T03:55:28;2.63;;;1.10;;
44078;SDS011;29744;49.078;12.878;2023-07-31T04:00:28;1.88;;;0.93;;
44078;SDS011;29744;49.078;12.878;2023-07-31T04:05:31;1.58;;;0.90;;
44078;SDS011;29744;49.078;12.878;2023-07-31T04:10:32;1.60;;;0.98;;
44078;SDS011;29744;49.078;12.878;2023-07-31T04:15:33;2.13;;;1.10;;
44078;SDS011;29744;49.078;12.878;2023-07-31T04:20:33;2.10;;;0.90;;
44078;SDS011;29744;49.078;12.878;2023-07-31T04:25:34;1.83;;;1.15;;
44078;SDS011;29744;49.078;12.878;2023-07-31T04:30:35;2.30;;;1.10;;
44078;SDS011;29744;49.078;12.878;2023-07-31T04:35:36;2.25;;;1.20;;
44078;SDS011;29744;49.078;12.878;2023-07-31T04:40:36;2.93;;;1.20;;
44078;SDS011;29744;49.078;12.878;2023-07-31T04:45:37;2.15;;;1.20;;
44078;SDS011;29744;49.078;12.878;2023-07-31T04:50:37;2.42;;;1.20;;
44078;SDS011;29744;49.078;12.878;2023-07-31T04:55:37;2.95;;;1.20;;
44078;SDS011;29744;49.078;12.878;2023-07-31T05:00:37;1.90;;;0.80;;
44078;SDS011;29744;49.078;12.878;2023-07-31T05:05:38;2.03;;;0.90;;
44078;SDS011;29744;49.078;12.878;2023-07-31T05:10:38;2.60;;;1.00;;
44078;SDS011;29744;49.078;12.878;2023-07-31T05:15:38;2.60;;;1.08;;
44078;SDS011;29744;49.078;12.878;2023-07-31T05:20:39;2.67;;;1.20;;
44078;SDS011;29744;49.078;12.878;2023-07-31T05:25:39;3.08;;;1.20;;
44078;SDS011;29744;49.078;12.878;2023-07-31T05:30:39;2.63;;;1.23;;
44078;SDS011;29744;49.078;12.878;2023-07-31T05:35:39;1.77;;;1.00;;
44078;SDS011;29744;49.078;12.878;2023-07-31T05:40:40;1.90;;;1.10;;
44078;SDS011;29744;49.078;12.878;2023-07-31T05:45:42;2.42;;;1.10;;
44078;SDS011;29744;49.078;12.878;2023-07-31T05:50:43;2.50;;;1.20;;
44078;SDS011;29744;49.078;12.878;2023-07-31T05:55:44;2.15;;;1.17;;
44078;SDS011;29744;49.078;12.878;2023-07-31T06:00:44;3.65;;;1.30;;
44078;SDS011;29744;49.078;12.878;2023-07-31T06:05:44;2.40;;;1.02;;
44078;SDS011;29744;49.078;12.878;2023-07-31T06:10:44;3.20;;;1.48;;
44078;SDS011;29744;49.078;12.878;2023-07-31T06:15:45;3.42;;;1.50;;
44078;SDS011;29744;49.078;12.878;2023-07-31T06:20:45;2.80;;;1.27;;
44078;SDS011;29744;49.078;12.878;2023-07-31T06:25:47;3.05;;;1.20;;
44078;SDS011;29744;49.078;12.878;2023-07-31T06:30:47;3.53;;;1.17;;
44078;SDS011;29744;49.078;12.878;2023-07-31T06:35:48;2.35;;;1.30;;
44078;SDS011;29744;49.078;12.878;2023-07-31T06:40:48;2.70;;;1.33;;
44078;SDS011;29744;49.078;12.878;2023-07-31T06:45:49;2.30;;;1.15;;
44078;SDS011;29744;49.078;12.878;2023-07-31T06:50:51;2.38;;;1.20;;
44078;SDS011;29744;49.078;12.878;2023-07-31T06:55:51;2.90;;;1.30;;
44078;SDS011;29744;49.078;12.878;2023-07-31T07:00:51;2.60;;;1.10;;
44078;SDS011;29744;49.078;12.878;2023-07-31T07:05:52;2.63;;;1.23;;
44078;SDS011;29744;49.078;12.878;2023-07-31T07:10:52;2.53;;;1.20;;
44078;SDS011;29744;49.078;12.878;2023-07-31T07:15:52;2.80;;;1.43;;
44078;SDS011;29744;49.078;12.878;2023-07-31T07:20:53;2.60;;;1.20;;
44078;SDS011;29744;49.078;12.878;2023-07-31T07:25:54;2.25;;;1.30;;
44078;SDS011;29744;49.078;12.878;2023-07-31T07:30:54;2.20;;;1.20;;
44078;SDS011;29744;49.078;12.878;2023-07-31T07:35:54;3.53;;;1.10;;
44078;SDS011;29744;49.078;12.878;2023-07-31T07:40:55;1.80;;;1.10;;
44078;SDS011;29744;49.078;12.878;2023-07-31T07:45:55;2.00;;;1.13;;
44078;SDS011;29744;49.078;12.878;2023-07-31T07:50:55;2.22;;;1.20;;
44078;SDS011;29744;49.078;12.878;2023-07-31T07:55:56;2.35;;;1.05;;
44078;SDS011;29744;49.078;12.878;2023-07-31T08:00:56;2.90;;;1.40;;
44078;SDS011;29744;49.078;12.878;2023-07-31T08:06:00;2.75;;;1.48;;
44078;SDS011;29744;49.078;12.878;2023-07-31T08:11:01;2.08;;;1.30;;
44078;SDS011;29744;49.078;12.878;2023-07-31T08:16:02;2.05;;;1.02;;
44078;SDS011;29744;49.078;12.878;2023-07-31T08:21:03;2.15;;;1.05;;
44078;SDS011;29744;49.078;12.878;2023-07-31T08:26:03;2.50;;;1.20;;
44078;SDS011;29744;49.078;12.878;2023-07-31T08:31:03;1.93;;;1.17;;
44078;SDS011;29744;49.078;12.878;2023-07-31T08:36:04;2.08;;;1.10;;
44078;SDS011;29744;49.078;12.878;2023-07-31T08:41:05;1.92;;;1.10;;
44078;SDS011;29744;49.078;12.878;2023-07-31T08:46:05;1.80;;;1.00;;
44078;SDS011;29744;49.078;12.878;2023-07-31T08:51:06;2.47;;;1.20;;
44078;SDS011;29744;49.078;12.878;2023-07-31T08:56:07;3.05;;;1.30;;
44078;SDS011;29744;49.078;12.878;2023-07-31T09:01:07;1.85;;;1.10;;
44078;SDS011;29744;49.078;12.878;2023-07-31T09:06:09;2.10;;;1.05;;
44078;SDS011;29744;49.078;12.878;2023-07-31T09:11:10;1.73;;;0.90;;
44078;SDS011;29744;49.078;12.878;2023-07-31T09:16:11;2.08;;;1.20;;
44078;SDS011;29744;49.078;12.878;2023-07-31T09:21:11;2.05;;;1.08;;
44078;SDS011;29744;49.078;12.878;2023-07-31T09:26:13;2.63;;;1.13;;
44078;SDS011;29744;49.078;12.878;2023-07-31T09:31:38;1.92;;;1.20;;
44078;SDS011;29744;49.078;12.878;2023-07-31T09:36:43;1.45;;;1.00;;
44078;SDS011;29744;49.078;12.878;2023-07-31T09:42:03;2.85;;;0.93;;
44078;SDS011;29744;49.078;12.878;2023-07-31T09:47:04;2.30;;;1.00;;
44078;SDS011;29744;49.078;12.878;2023-07-31T09:52:05;1.58;;;0.90;;
44078;SDS011;29744;49.078;12.878;2023-07-31T09:57:12;2.60;;;1.10;;
44078;SDS011;29744;49.078;12.878;2023-07-31T10:02:14;2.55;;;1.20;;
44078;SDS011;29744;49.078;12.878;2023-07-31T10:07:20;2.22;;;1.20;;
44078;SDS011;29744;49.078;12.878;2023-07-31T10:12:25;3.17;;;1.20;;
44078;SDS011;29744;49.078;12.878;2023-07-31T10:17:30;2.15;;;1.17;;
44078;SDS011;29744;49.078;12.878;2023-07-31T10:22:31;1.85;;;1.02;;
44078;SDS011;29744;49.078;12.878;2023-07-31T10:27:33;1.75;;;1.00;;
44078;SDS011;29744;49.078;12.878;2023-07-31T10:32:36;1.92;;;1.10;;
44078;SDS011;29744;49.078;12.878;2023-07-31T10:37:39;2.33;;;1.23;;
44078;SDS011;29744;49.078;12.878;2023-07-31T10:47:48;1.77;;;1.10;;
44078;SDS011;29744;49.078;12.878;2023-07-31T10:52:49;1.77;;;1.10;;
44078;SDS011;29744;49.078;12.878;2023-07-31T10:57:53;2.17;;;1.08;;
44078;SDS011;29744;49.078;12.878;2023-07-31T11:08:09;1.90;;;1.10;;
44078;SDS011;29744;49.078;12.878;2023-07-31T11:13:14;3.45;;;1.10;;
44078;SDS011;29744;49.078;12.878;2023-07-31T11:18:14;2.13;;;1.00;;
44078;SDS011;29744;49.078;12.878;2023-07-31T11:23:17;2.85;;;1.10;;
44078;SDS011;29744;49.078;12.878;2023-07-31T11:28:18;1.98;;;1.02;;
44078;SDS011;29744;49.078;12.878;2023-07-31T11:33:19;2.33;;;1.08;;
44078;SDS011;29744;49.078;12.878;2023-07-31T11:43:30;3.17;;;1.17;;
44078;SDS011;29744;49.078;12.878;2023-07-31T11:48:32;1.60;;;0.85;;
44078;SDS011;29744;49.078;12.878;2023-07-31T11:58:55;1.45;;;0.88;;
44078;SDS011;29744;49.078;12.878;2023-07-31T12:03:58;1.48;;;0.85;;
44078;SDS011;29744;49.078;12.878;2023-07-31T12:09:03;3.30;;;1.00;;
44078;SDS011;29744;49.078;12.878;2023-07-31T12:14:04;1.70;;;1.02;;
44078;SDS011;29744;49.078;12.878;2023-07-31T12:19:04;2.90;;;0.80;;
44078;SDS011;29744;49.078;12.878;2023-07-31T12:24:05;1.02;;;0.75;;
44078;SDS011;29744;49.078;12.878;2023-07-31T12:29:06;1.50;;;0.90;;
44078;SDS011;29744;49.078;12.878;2023-07-31T12:34:17;1.60;;;0.75;;
44078;SDS011;29744;49.078;12.878;2023-07-31T12:39:18;2.03;;;1.02;;
44078;SDS011;29744;49.078;12.878;2023-07-31T12:44:18;1.50;;;0.90;;
44078;SDS011;29744;49.078;12.878;2023-07-31T12:49:19;2.17;;;1.05;;
44078;SDS011;29744;49.078;12.878;2023-07-31T12:54:19;1.85;;;1.00;;
44078;SDS011;29744;49.078;12.878;2023-07-31T12:59:19;2.15;;;1.02;;
44078;SDS011;29744;49.078;12.878;2023-07-31T13:04:20;1.67;;;0.90;;
44078;SDS011;29744;49.078;12.878;2023-07-31T13:09:20;1.38;;;0.90;;
44078;SDS011;29744;49.078;12.878;2023-07-31T13:14:20;1.47;;;0.70;;
44078;SDS011;29744;49.078;12.878;2023-07-31T13:19:20;1.45;;;0.90;;
44078;SDS011;29744;49.078;12.878;2023-07-31T13:24:21;1.47;;;0.90;;
44078;SDS011;29744;49.078;12.878;2023-07-31T13:29:21;1.50;;;0.90;;
44078;SDS011;29744;49.078;12.878;2023-07-31T13:34:22;1.75;;;1.10;;
44078;SDS011;29744;49.078;12.878;2023-07-31T13:39:22;1.50;;;0.82;;
44078;SDS011;29744;49.078;12.878;2023-07-31T13:44:22;1.90;;;0.90;;
44078;SDS011;29744;49.078;12.878;2023-07-31T13:49:22;1.25;;;0.88;;
44078;SDS011;29744;49.078;12.878;2023-07-31T13:54:23;1.15;;;0.88;;
44078;SDS011;29744;49.078;12.878;2023-07-31T13:59:24;1.90;;;1.00;;
44078;SDS011;29744;49.078;12.878;2023-07-31T14:04:24;1.38;;;0.88;;
44078;SDS011;29744;49.078;12.878;2023-07-31T14:09:25;1.30;;;0.90;;
44078;SDS011;29744;49.078;12.878;2023-07-31T14:14:26;2.15;;;1.00;;
44078;SDS011;29744;49.078;12.878;2023-07-31T14:19:27;1.13;;;0.70;;
44078;SDS011;29744;49.078;12.878;2023-07-31T14:24:27;1.80;;;0.90;;
44078;SDS011;29744;49.078;12.878;2023-07-31T14:29:27;1.88;;;1.00;;
44078;SDS011;29744;49.078;12.878;2023-07-31T14:34:27;1.52;;;0.90;;
44078;SDS011;29744;49.078;12.878;2023-07-31T14:39:28;1.30;;;0.80;;
44078;SDS011;29744;49.078;12.878;2023-07-31T14:44:28;1.90;;;1.00;;
44078;SDS011;29744;49.078;12.878;2023-07-31T14:49:28;1.92;;;1.10;;
44078;SDS011;29744;49.078;12.878;2023-07-31T14:54:29;1.73;;;0.80;;
44078;SDS011;29744;49.078;12.878;2023-07-31T14:59:29;1.52;;;0.90;;
44078;SDS011;29744;49.078;12.878;2023-07-31T15:04:29;1.33;;;0.90;;
44078;SDS011;29744;49.078;12.878;2023-07-31T15:09:29;1.60;;;0.98;;
44078;SDS011;29744;49.078;12.878;2023-07-31T15:14:30;1.08;;;0.75;;
44078;SDS011;29744;49.078;12.878;2023-07-31T15:19:31;1.33;;;0.90;;
44078;SDS011;29744;49.078;12.878;2023-07-31T15:24:34;1.45;;;0.80;;
44078;SDS011;29744;49.078;12.878;2023-07-31T15:29:35;1.33;;;0.80;;
44078;SDS011;29744;49.078;12.878;2023-07-31T15:34:36;1.55;;;0.93;;
44078;SDS011;29744;49.078;12.878;2023-07-31T15:39:37;2.10;;;1.00;;
44078;SDS011;29744;49.078;12.878;2023-07-31T15:44:37;1.50;;;0.90;;
44078;SDS011;29744;49.078;12.878;2023-07-31T15:49:39;1.13;;;0.80;;
44078;SDS011;29744;49.078;12.878;2023-07-31T15:54:39;1.75;;;1.00;;
44078;SDS011;29744;49.078;12.878;2023-07-31T15:59:40;1.75;;;0.90;;
44078;SDS011;29744;49.078;12.878;2023-07-31T16:04:40;3.90;;;1.10;;
44078;SDS011;29744;49.078;12.878;2023-07-31T16:09:41;2.28;;;1.30;;
44078;SDS011;29744;49.078;12.878;2023-07-31T16:14:41;3.08;;;1.60;;
44078;SDS011;29744;49.078;12.878;2023-07-31T16:19:41;2.63;;;1.70;;
44078;SDS011;29744;49.078;12.878;2023-07-31T16:24:42;2.58;;;1.50;;
44078;SDS011;29744;49.078;12.878;2023-07-31T16:29:42;2.80;;;1.50;;
44078;SDS011;29744;49.078;12.878;2023-07-31T16:34:42;2.85;;;1.52;;
44078;SDS011;29744;49.078;12.878;2023-07-31T16:39:43;2.75;;;1.40;;
44078;SDS011;29744;49.078;12.878;2023-07-31T16:44:46;2.38;;;1.30;;
44078;SDS011;29744;49.078;12.878;2023-07-31T16:49:47;2.60;;;1.40;;
44078;SDS011;29744;49.078;12.878;2023-07-31T16:54:47;2.23;;;1.20;;
44078;SDS011;29744;49.078;12.878;2023-07-31T16:59:47;3.05;;;1.42;;
44078;SDS011;29744;49.078;12.878;2023-07-31T17:04:47;4.00;;;1.67;;
44078;SDS011;29744;49.078;12.878;2023-07-31T17:09:48;3.13;;;1.40;;
44078;SDS011;29744;49.078;12.878;2023-07-31T17:14:48;3.20;;;1.40;;
44078;SDS011;29744;49.078;12.878;2023-07-31T17:19:48;3.47;;;1.50;;
44078;SDS011;29744;49.078;12.878;2023-07-31T17:24:49;2.22;;;1.30;;
44078;SDS011;29744;49.078;12.878;2023-07-31T17:29:50;3.00;;;1.52;;
44078;SDS011;29744;49.078;12.878;2023-07-31T17:34:50;3.97;;;1.83;;
44078;SDS011;29744;49.078;12.878;2023-07-31T17:39:51;2.80;;;1.65;;
44078;SDS011;29744;49.078;12.878;2023-07-31T17:44:51;2.75;;;1.70;;
44078;SDS011;29744;49.078;12.878;2023-07-31T17:49:51;4.50;;;1.50;;
44078;SDS011;29744;49.078;12.878;2023-07-31T17:54:51;2.80;;;1.38;;
44078;SDS011;29744;49.078;12.878;2023-07-31T17:59:54;3.83;;;1.48;;
44078;SDS011;29744;49.078;12.878;2023-07-31T18:04:54;5.45;;;1.77;;
44078;SDS011;29744;49.078;12.878;2023-07-31T18:09:54;3.55;;;1.50;;
44078;SDS011;29744;49.078;12.878;2023-07-31T18:14:55;4.60;;;1.60;;
44078;SDS011;29744;49.078;12.878;2023-07-31T18:19:55;3.17;;;1.52;;
44078;SDS011;29744;49.078;12.878;2023-07-31T18:24:55;3.70;;;1.50;;
44078;SDS011;29744;49.078;12.878;2023-07-31T18:29:55;4.35;;;1.77;;
44078;SDS011;29744;49.078;12.878;2023-07-31T18:34:56;3.55;;;1.52;;
44078;SDS011;29744;49.078;12.878;2023-07-31T18:39:56;4.15;;;1.70;;
44078;SDS011;29744;49.078;12.878;2023-07-31T18:44:56;3.88;;;1.70;;
44078;SDS011;29744;49.078;12.878;2023-07-31T18:49:57;3.72;;;1.65;;
44078;SDS011;29744;49.078;12.878;2023-07-31T18:54:57;5.30;;;1.85;;
44078;SDS011;29744;49.078;12.878;2023-07-31T18:59:57;3.70;;;1.70;;
44078;SDS011;29744;49.078;12.878;2023-07-31T19:04:57;3.55;;;1.42;;
44078;SDS011;29744;49.078;12.878;2023-07-31T19:09:58;3.85;;;1.63;;
44078;SDS011;29744;49.078;12.878;2023-07-31T19:14:59;3.70;;;1.67;;
44078;SDS011;29744;49.078;12.878;2023-07-31T19:19:59;3.13;;;1.50;;
44078;SDS011;29744;49.078;12.878;2023-07-31T19:25:00;3.00;;;1.50;;
44078;SDS011;29744;49.078;12.878;2023-07-31T19:30:00;4.53;;;1.67;;
44078;SDS011;29744;49.078;12.878;2023-07-31T19:35:00;3.05;;;1.63;;
44078;SDS011;29744;49.078;12.878;2023-07-31T19:40:02;4.22;;;1.60;;
44078;SDS011;29744;49.078;12.878;2023-07-31T19:45:05;3.38;;;1.55;;
44078;SDS011;29744;49.078;12.878;2023-07-31T19:50:06;4.10;;;1.80;;
44078;SDS011;29744;49.078;12.878;2023-07-31T19:55:07;3.38;;;1.75;;
44078;SDS011;29744;49.078;12.878;2023-07-31T20:00:08;3.65;;;1.60;;
44078;SDS011;29744;49.078;12.878;2023-07-31T20:05:09;3.33;;;1.73;;
44078;SDS011;29744;49.078;12.878;2023-07-31T20:10:09;4.47;;;1.67;;
44078;SDS011;29744;49.078;12.878;2023-07-31T20:15:22;5.55;;;1.80;;
44078;SDS011;29744;49.078;12.878;2023-07-31T20:20:23;3.55;;;1.60;;
44078;SDS011;29744;49.078;12.878;2023-07-31T20:25:23;4.22;;;1.50;;
44078;SDS011;29744;49.078;12.878;2023-07-31T20:30:24;3.33;;;1.60;;
44078;SDS011;29744;49.078;12.878;2023-07-31T20:35:24;3.35;;;1.75;;
44078;SDS011;29744;49.078;12.878;2023-07-31T20:40:24;3.17;;;1.50;;
44078;SDS011;29744;49.078;12.878;2023-07-31T20:45:25;3.20;;;1.60;;
44078;SDS011;29744;49.078;12.878;2023-07-31T20:50:26;4.15;;;1.70;;
44078;SDS011;29744;49.078;12.878;2023-07-31T20:55:27;3.35;;;1.60;;
44078;SDS011;29744;49.078;12.878;2023-07-31T21:00:27;4.20;;;1.67;;
44078;SDS011;29744;49.078;12.878;2023-07-31T21:05:28;4.05;;;1.67;;
44078;SDS011;29744;49.078;12.878;2023-07-31T21:10:28;2.97;;;1.50;;
44078;SDS011;29744;49.078;12.878;2023-07-31T21:15:28;2.88;;;1.50;;
44078;SDS011;29744;49.078;12.878;2023-07-31T21:20:29;3.00;;;1.50;;
44078;SDS011;29744;49.078;12.878;2023-07-31T21:25:32;3.90;;;1.60;;
44078;SDS011;29744;49.078;12.878;2023-07-31T21:30:33;3.15;;;1.73;;
44078;SDS011;29744;49.078;12.878;2023-07-31T21:35:34;3.17;;;1.40;;
44078;SDS011;29744;49.078;12.878;2023-07-31T21:40:34;3.80;;;1.70;;
44078;SDS011;29744;49.078;12.878;2023-07-31T21:45:34;2.80;;;1.40;;
44078;SDS011;29744;49.078;12.878;2023-07-31T21:50:35;2.85;;;1.45;;
44078;SDS011;29744;49.078;12.878;2023-07-31T21:55:35;2.90;;;1.60;;
44078;SDS011;29744;49.078;12.878;2023-07-31T22:00:35;2.85;;;1.50;;
44078;SDS011;29744;49.078;12.878;2023-07-31T22:05:36;4.40;;;1.80;;
44078;SDS011;29744;49.078;12.878;2023-07-31T22:10:36;2.90;;;1.60;;
44078;SDS011;29744;49.078;12.878;2023-07-31T22:15:36;2.75;;;1.30;;
44078;SDS011;29744;49.078;12.878;2023-07-31T22:20:37;3.20;;;1.50;;
44078;SDS011;29744;49.078;12.878;2023-07-31T22:25:37;3.33;;;1.77;;
44078;SDS011;29744;49.078;12.878;2023-07-31T22:30:37;2.95;;;1.55;;
44078;SDS011;29744;49.078;12.878;2023-07-31T22:35:37;2.80;;;1.73;;
44078;SDS011;29744;49.078;12.878;2023-07-31T22:40:38;3.90;;;1.50;;
44078;SDS011;29744;49.078;12.878;2023-07-31T22:45:38;3.03;;;1.45;;
44078;SDS011;29744;49.078;12.878;2023-07-31T22:50:38;3.40;;;1.48;;
44078;SDS011;29744;49.078;12.878;2023-07-31T22:55:38;2.75;;;1.60;;
44078;SDS011;29744;49.078;12.878;2023-07-31T23:00:39;3.25;;;1.75;;
44078;SDS011;29744;49.078;12.878;2023-07-31T23:05:39;2.93;;;1.70;;
44078;SDS011;29744;49.078;12.878;2023-07-31T23:10:39;2.53;;;1.30;;
44078;SDS011;29744;49.078;12.878;2023-07-31T23:15:39;2.58;;;1.60;;
44078;SDS011;29744;49.078;12.878;2023-07-31T23:20:40;2.83;;;1.50;;
44078;SDS011;29744;49.078;12.878;2023-07-31T23:25:40;2.78;;;1.45;;
44078;SDS011;29744;49.078;12.878;2023-07-31T23:30:40;2.85;;;1.33;;
44078;SDS011;29744;49.078;12.878;2023-07-31T23:35:41;3.03;;;1.70;;
44078;SDS011;29744;49.078;12.878;2023-07-31T23:40:41;3.45;;;1.45;;
44078;SDS011;29744;49.078;12.878;2023-07-31T23:45:41;2.90;;;1.48;;
44078;SDS011;29744;49.078;12.878;2023-07-31T23:50:42;2.38;;;1.38;;
44078;SDS011;29744;49.078;12.878;2023-07-31T23:55:42;3.58;;;1.60;;
